Wetterdaten: Woche 06.02.17 - 12.02.17 (KW6)
Datum Zeit Temperatur Luftfeuchte Luftdruck Niederschlag Windrichtung Sonnenschein Solar Wind
06.02.2017 00:00 1,9 C 94 % 1004,1 hPa 0,2 l/m NW 0,00 h 0 W/m 0,5 km/h (0 Bft)
06.02.2017 01:00 1,7 C 95 % 1005,0 hPa 0,0 l/m W 0,00 h 0 W/m 3,3 km/h (1 Bft)
06.02.2017 02:00 1,5 C 95 % 1005,5 hPa 0,0 l/m N 0,00 h 0 W/m 0,0 km/h (0 Bft)
06.02.2017 03:00 1,3 C 96 % 1006,6 hPa 0,2 l/m N 0,00 h 0 W/m 0,0 km/h (0 Bft)
06.02.2017 04:00 1,2 C 96 % 1007,5 hPa 0,0 l/m N 0,00 h 0 W/m 0,0 km/h (0 Bft)
06.02.2017 05:00 1,0 C 96 % 1008,4 hPa 0,0 l/m N 0,00 h 0 W/m 0,0 km/h (0 Bft)
06.02.2017 06:00 0,8 C 96 % 1009,6 hPa 0,0 l/m N 0,00 h 0 W/m 0,0 km/h (0 Bft)
06.02.2017 07:00 0,7 C 97 % 1010,7 hPa 0,0 l/m N 0,00 h 7 W/m 0,0 km/h (0 Bft)
06.02.2017 08:00 0,6 C 97 % 1011,8 hPa 0,0 l/m N 0,00 h 32 W/m 0,0 km/h (0 Bft)
06.02.2017 09:00 0,8 C 97 % 1012,6 hPa 0,0 l/m W 0,00 h 55 W/m 2,5 km/h (1 Bft)
06.02.2017 10:00 1,3 C 98 % 1013,6 hPa 0,0 l/m N 0,00 h 130 W/m 0,0 km/h (0 Bft)
06.02.2017 11:00 2,3 C 99 % 1014,6 hPa 0,0 l/m W 0,00 h 193 W/m 3,5 km/h (1 Bft)
06.02.2017 12:00 3,2 C 98 % 1014,9 hPa 0,0 l/m W 0,00 h 117 W/m 3,7 km/h (1 Bft)
06.02.2017 13:00 3,9 C 95 % 1015,0 hPa 0,0 l/m W 0,08 h 156 W/m 6,7 km/h (2 Bft)
06.02.2017 14:00 4,6 C 91 % 1015,1 hPa 0,0 l/m W-SW 0,00 h 150 W/m 5,1 km/h (1 Bft)
06.02.2017 15:00 4,6 C 90 % 1015,5 hPa 0,0 l/m SW 0,00 h 79 W/m 8,6 km/h (2 Bft)
06.02.2017 16:00 3,9 C 92 % 1016,1 hPa 0,0 l/m SW 0,00 h 37 W/m 9,3 km/h (2 Bft)
06.02.2017 17:00 3,5 C 92 % 1016,8 hPa 0,0 l/m SW 0,00 h 12 W/m 6,5 km/h (2 Bft)
06.02.2017 18:00 3,1 C 93 % 1017,4 hPa 0,0 l/m SW 0,00 h 0 W/m 2,3 km/h (1 Bft)
06.02.2017 19:00 2,9 C 94 % 1017,7 hPa 0,0 l/m N 0,00 h 0 W/m 0,0 km/h (0 Bft)
06.02.2017 20:00 2,8 C 94 % 1017,9 hPa 0,0 l/m N 0,00 h 0 W/m 0,0 km/h (0 Bft)
06.02.2017 21:00 2,5 C 94 % 1018,0 hPa 0,0 l/m N 0,00 h 0 W/m 0,0 km/h (0 Bft)
06.02.2017 22:00 2,3 C 94 % 1018,1 hPa 0,0 l/m N 0,00 h 0 W/m 0,0 km/h (0 Bft)
06.02.2017 23:00 2,0 C 94 % 1017,8 hPa 0,0 l/m N 0,00 h 0 W/m 0,0 km/h (0 Bft)
07.02.2017 00:00 1,0 C 93 % 1017,8 hPa 0,0 l/m N 0,00 h 0 W/m 0,0 km/h (0 Bft)
07.02.2017 01:00 0,3 C 93 % 1017,7 hPa 0,0 l/m N 0,00 h 0 W/m 0,0 km/h (0 Bft)
07.02.2017 02:00 -0,2 C 94 % 1017,8 hPa 0,0 l/m N 0,00 h 0 W/m 0,0 km/h (0 Bft)
07.02.2017 03:00 -0,4 C 95 % 1017,6 hPa 0,0 l/m N 0,00 h 0 W/m 0,0 km/h (0 Bft)
07.02.2017 04:00 0,2 C 96 % 1017,5 hPa 0,0 l/m N 0,00 h 0 W/m 0,0 km/h (0 Bft)
07.02.2017 05:00 0,6 C 96 % 1017,4 hPa 0,0 l/m N 0,00 h 0 W/m 0,0 km/h (0 Bft)
07.02.2017 06:00 0,8 C 97 % 1017,2 hPa 0,0 l/m N 0,00 h 0 W/m 0,0 km/h (0 Bft)
07.02.2017 07:00 0,9 C 97 % 1017,1 hPa 0,0 l/m N 0,00 h 5 W/m 1,1 km/h (0 Bft)
07.02.2017 08:00 1,2 C 97 % 1017,1 hPa 0,0 l/m N 0,00 h 32 W/m 0,0 km/h (0 Bft)
07.02.2017 09:00 1,6 C 97 % 1016,8 hPa 0,0 l/m N 0,00 h 61 W/m 0,0 km/h (0 Bft)
07.02.2017 10:00 2,3 C 97 % 1016,5 hPa 0,0 l/m N 0,00 h 148 W/m 0,0 km/h (0 Bft)
07.02.2017 11:00 3,2 C 92 % 1016,4 hPa 0,0 l/m N 0,08 h 152 W/m 0,0 km/h (0 Bft)
07.02.2017 12:00 3,7 C 89 % 1015,9 hPa 0,0 l/m SW 0,08 h 190 W/m 2,0 km/h (1 Bft)
07.02.2017 13:00 4,7 C 83 % 1015,4 hPa 0,0 l/m SW 0,75 h 303 W/m 3,1 km/h (1 Bft)
07.02.2017 14:00 5,0 C 79 % 1015,2 hPa 0,0 l/m SW 0,00 h 169 W/m 3,6 km/h (1 Bft)
07.02.2017 15:00 5,1 C 77 % 1015,2 hPa 0,0 l/m SW 0,08 h 126 W/m 2,1 km/h (1 Bft)
07.02.2017 16:00 4,8 C 79 % 1015,4 hPa 0,0 l/m SW 0,00 h 35 W/m 2,0 km/h (1 Bft)
07.02.2017 17:00 4,5 C 81 % 1015,7 hPa 0,0 l/m SW 0,08 h 10 W/m 0,7 km/h (0 Bft)
07.02.2017 18:00 3,9 C 84 % 1016,2 hPa 0,0 l/m N 0,00 h 0 W/m 0,1 km/h (0 Bft)
07.02.2017 19:00 3,4 C 87 % 1016,3 hPa 0,0 l/m SW 0,00 h 0 W/m 0,5 km/h (0 Bft)
07.02.2017 20:00 2,8 C 89 % 1016,0 hPa 0,2 l/m N 0,00 h 0 W/m 0,8 km/h (0 Bft)
07.02.2017 21:00 2,0 C 90 % 1016,0 hPa 0,0 l/m SW 0,00 h 0 W/m 6,1 km/h (2 Bft)
07.02.2017 22:00 1,8 C 92 % 1015,9 hPa 0,0 l/m N 0,00 h 0 W/m 0,9 km/h (0 Bft)
07.02.2017 23:00 1,5 C 93 % 1015,9 hPa 0,0 l/m N 0,00 h 0 W/m 0,0 km/h (0 Bft)
08.02.2017 00:00 1,3 C 94 % 1016,1 hPa 0,0 l/m N 0,00 h 0 W/m 0,0 km/h (0 Bft)
08.02.2017 01:00 1,3 C 94 % 1015,9 hPa 0,0 l/m N 0,00 h 0 W/m 0,0 km/h (0 Bft)
08.02.2017 02:00 1,3 C 95 % 1016,1 hPa 0,0 l/m N 0,00 h 0 W/m 0,0 km/h (0 Bft)
08.02.2017 03:00 1,3 C 95 % 1015,8 hPa 0,0 l/m N 0,00 h 0 W/m 0,0 km/h (0 Bft)
08.02.2017 04:00 1,3 C 96 % 1015,8 hPa 0,0 l/m N 0,00 h 0 W/m 0,0 km/h (0 Bft)
08.02.2017 05:00 1,3 C 96 % 1016,2 hPa 0,0 l/m N 0,00 h 0 W/m 0,3 km/h (0 Bft)
08.02.2017 06:00 1,3 C 96 % 1016,6 hPa 0,0 l/m SW 0,00 h 0 W/m 2,7 km/h (1 Bft)
08.02.2017 07:00 1,3 C 96 % 1017,0 hPa 0,0 l/m SW 0,00 h 0 W/m 6,7 km/h (2 Bft)
08.02.2017 08:00 1,3 C 97 % 1017,7 hPa 0,0 l/m O-NO 0,00 h 15 W/m 7,9 km/h (2 Bft)
08.02.2017 09:00 1,4 C 97 % 1018,0 hPa 0,0 l/m NO 0,00 h 56 W/m 11,7 km/h (2 Bft)
08.02.2017 10:00 1,7 C 97 % 1018,2 hPa 0,0 l/m O-NO 0,00 h 94 W/m 12,9 km/h (3 Bft)
08.02.2017 11:00 2,1 C 95 % 1018,5 hPa 0,0 l/m NO 0,00 h 134 W/m 12,9 km/h (3 Bft)
08.02.2017 12:00 2,7 C 92 % 1018,8 hPa 0,0 l/m O-NO 0,00 h 192 W/m 13,3 km/h (3 Bft)
08.02.2017 13:00 3,1 C 89 % 1018,9 hPa 0,0 l/m NO 0,25 h 215 W/m 13,7 km/h (3 Bft)
08.02.2017 14:00 3,9 C 84 % 1019,2 hPa 0,0 l/m NO 0,75 h 256 W/m 15,2 km/h (3 Bft)
08.02.2017 15:00 3,6 C 83 % 1019,7 hPa 0,0 l/m O-NO 0,00 h 95 W/m 14,4 km/h (3 Bft)
08.02.2017 16:00 3,2 C 84 % 1019,9 hPa 0,0 l/m NO 0,00 h 57 W/m 12,0 km/h (2 Bft)
08.02.2017 17:00 2,6 C 85 % 1020,4 hPa 0,0 l/m NO 0,00 h 14 W/m 9,9 km/h (2 Bft)
08.02.2017 18:00 1,4 C 87 % 1021,1 hPa 0,0 l/m NO 0,00 h 0 W/m 12,4 km/h (3 Bft)
08.02.2017 19:00 0,4 C 89 % 1021,7 hPa 0,0 l/m NO 0,00 h 0 W/m 6,8 km/h (2 Bft)
08.02.2017 20:00 -0,4 C 90 % 1022,2 hPa 0,0 l/m N-NO 0,00 h 0 W/m 8,3 km/h (2 Bft)
08.02.2017 21:00 -1,0 C 91 % 1022,5 hPa 0,0 l/m N 0,00 h 0 W/m 8,7 km/h (2 Bft)
08.02.2017 22:00 -1,5 C 92 % 1022,7 hPa 0,0 l/m N 0,00 h 0 W/m 7,0 km/h (2 Bft)
08.02.2017 23:00 -1,8 C 91 % 1022,9 hPa 0,0 l/m N 0,00 h 0 W/m 2,5 km/h (1 Bft)
09.02.2017 00:00 -2,1 C 92 % 1022,9 hPa 0,0 l/m N 0,00 h 0 W/m 6,1 km/h (2 Bft)
09.02.2017 01:00 -2,2 C 92 % 1022,9 hPa 0,0 l/m N-NO 0,00 h 0 W/m 8,6 km/h (2 Bft)
09.02.2017 02:00 -2,4 C 92 % 1022,9 hPa 0,0 l/m N-NO 0,00 h 0 W/m 9,3 km/h (2 Bft)
09.02.2017 03:00 -2,7 C 93 % 1022,7 hPa 0,0 l/m N-NO 0,00 h 0 W/m 9,4 km/h (2 Bft)
09.02.2017 04:00 -3,0 C 93 % 1022,6 hPa 0,0 l/m N-NO 0,00 h 0 W/m 9,0 km/h (2 Bft)
09.02.2017 05:00 -2,9 C 92 % 1022,6 hPa 0,0 l/m N-NO 0,00 h 0 W/m 12,1 km/h (2 Bft)
09.02.2017 06:00 -3,2 C 92 % 1022,7 hPa 0,0 l/m N-NO 0,00 h 0 W/m 11,0 km/h (2 Bft)
09.02.2017 07:00 -3,4 C 92 % 1022,7 hPa 0,0 l/m N-NO 0,00 h 6 W/m 12,0 km/h (2 Bft)
09.02.2017 08:00 -2,8 C 93 % 1022,7 hPa 0,0 l/m O-NO 0,00 h 32 W/m 13,5 km/h (3 Bft)
09.02.2017 09:00 -2,1 C 92 % 1022,5 hPa 0,0 l/m O-NO 0,00 h 76 W/m 15,2 km/h (3 Bft)
09.02.2017 10:00 -1,7 C 90 % 1022,3 hPa 0,0 l/m O-NO 0,00 h 72 W/m 14,5 km/h (3 Bft)
09.02.2017 11:00 -1,4 C 89 % 1022,3 hPa 0,0 l/m O-NO 0,00 h 76 W/m 15,8 km/h (3 Bft)
09.02.2017 12:00 -1,2 C 89 % 1021,9 hPa 0,0 l/m O-NO 0,00 h 83 W/m 16,6 km/h (3 Bft)
09.02.2017 13:00 -0,9 C 88 % 1021,4 hPa 0,0 l/m O-NO 0,00 h 87 W/m 16,4 km/h (3 Bft)
09.02.2017 14:00 -0,6 C 87 % 1021,1 hPa 0,0 l/m O 0,00 h 75 W/m 15,2 km/h (3 Bft)
09.02.2017 15:00 -0,4 C 84 % 1021,0 hPa 0,0 l/m O 0,00 h 50 W/m 18,4 km/h (3 Bft)
09.02.2017 16:00 -0,5 C 83 % 1020,7 hPa 0,0 l/m O-NO 0,00 h 25 W/m 16,6 km/h (3 Bft)
09.02.2017 17:00 -0,6 C 84 % 1020,6 hPa 0,0 l/m O-NO 0,00 h 8 W/m 14,8 km/h (3 Bft)
09.02.2017 18:00 -0,8 C 84 % 1020,7 hPa 0,0 l/m O 0,00 h 0 W/m 16,6 km/h (3 Bft)
09.02.2017 19:00 -1,0 C 85 % 1020,6 hPa 0,0 l/m O 0,00 h 0 W/m 11,5 km/h (2 Bft)
09.02.2017 20:00 -1,3 C 85 % 1020,4 hPa 0,0 l/m O-NO 0,00 h 0 W/m 13,2 km/h (3 Bft)
09.02.2017 21:00 -1,6 C 86 % 1020,1 hPa 0,0 l/m O-NO 0,00 h 0 W/m 9,5 km/h (2 Bft)
09.02.2017 22:00 -1,7 C 87 % 1019,8 hPa 0,0 l/m O-NO 0,00 h 0 W/m 7,6 km/h (2 Bft)
09.02.2017 23:00 -1,7 C 88 % 1019,5 hPa 0,0 l/m O 0,00 h 0 W/m 9,7 km/h (2 Bft)
10.02.2017 00:00 -1,8 C 89 % 1019,5 hPa 0,0 l/m O-NO 0,00 h 0 W/m 7,8 km/h (2 Bft)
10.02.2017 01:00 -1,8 C 89 % 1019,2 hPa 0,0 l/m O-NO 0,00 h 0 W/m 7,6 km/h (2 Bft)
10.02.2017 02:00 -1,9 C 90 % 1019,2 hPa 0,0 l/m O-NO 0,00 h 0 W/m 5,9 km/h (2 Bft)
10.02.2017 03:00 -1,9 C 90 % 1019,0 hPa 0,0 l/m O-NO 0,00 h 0 W/m 2,8 km/h (1 Bft)
10.02.2017 04:00 -2,0 C 90 % 1018,8 hPa 0,0 l/m O-NO 0,00 h 0 W/m 2,8 km/h (1 Bft)
10.02.2017 05:00 -2,0 C 91 % 1018,7 hPa 0,0 l/m O-NO 0,00 h 0 W/m 0,9 km/h (0 Bft)
10.02.2017 06:00 -2,0 C 91 % 1018,6 hPa 0,0 l/m N 0,00 h 0 W/m 0,1 km/h (0 Bft)
10.02.2017 07:00 -1,9 C 91 % 1018,6 hPa 0,0 l/m N 0,00 h 6 W/m 1,1 km/h (0 Bft)
10.02.2017 08:00 -1,8 C 91 % 1019,2 hPa 0,0 l/m N 0,00 h 23 W/m 0,0 km/h (0 Bft)
10.02.2017 09:00 -1,5 C 91 % 1019,3 hPa 0,0 l/m O-NO 0,00 h 64 W/m 2,1 km/h (1 Bft)
10.02.2017 10:00 -1,0 C 89 % 1019,5 hPa 0,0 l/m N 0,00 h 79 W/m 0,0 km/h (0 Bft)
10.02.2017 11:00 -0,6 C 87 % 1019,7 hPa 0,0 l/m N 0,00 h 161 W/m 0,0 km/h (0 Bft)
10.02.2017 12:00 -0,1 C 86 % 1019,6 hPa 0,0 l/m N 0,00 h 143 W/m 0,8 km/h (0 Bft)
10.02.2017 13:00 0,9 C 83 % 1019,4 hPa 0,0 l/m O-NO 0,50 h 277 W/m 1,6 km/h (1 Bft)
10.02.2017 14:00 2,4 C 78 % 1019,3 hPa 0,0 l/m O 0,83 h 306 W/m 5,1 km/h (1 Bft)
10.02.2017 15:00 1,8 C 80 % 1019,3 hPa 0,0 l/m O 0,00 h 84 W/m 2,1 km/h (1 Bft)
10.02.2017 16:00 1,3 C 82 % 1019,3 hPa 0,0 l/m O 0,00 h 25 W/m 3,2 km/h (1 Bft)
10.02.2017 17:00 1,0 C 84 % 1019,4 hPa 0,0 l/m O 0,00 h 7 W/m 2,3 km/h (1 Bft)
10.02.2017 18:00 0,6 C 86 % 1019,6 hPa 0,0 l/m O 0,00 h 0 W/m 1,7 km/h (1 Bft)
10.02.2017 19:00 0,2 C 90 % 1019,5 hPa 0,0 l/m O 0,00 h 0 W/m 4,0 km/h (1 Bft)
10.02.2017 20:00 -0,1 C 91 % 1019,7 hPa 0,0 l/m O 0,00 h 0 W/m 1,6 km/h (1 Bft)
10.02.2017 21:00 -0,3 C 92 % 1019,8 hPa 0,0 l/m O 0,00 h 0 W/m 4,3 km/h (1 Bft)
10.02.2017 22:00 -0,5 C 93 % 1019,8 hPa 0,0 l/m N 0,00 h 0 W/m 1,1 km/h (0 Bft)
10.02.2017 23:00 -1,1 C 93 % 1019,8 hPa 0,0 l/m N 0,00 h 0 W/m 0,0 km/h (0 Bft)
11.02.2017 00:00 -1,8 C 93 % 1019,9 hPa 0,0 l/m O-NO 0,00 h 0 W/m 3,5 km/h (1 Bft)
11.02.2017 01:00 -2,4 C 93 % 1019,8 hPa 0,0 l/m N 0,00 h 0 W/m 0,5 km/h (0 Bft)
11.02.2017 02:00 -2,8 C 94 % 1019,8 hPa 0,0 l/m O-NO 0,00 h 0 W/m 4,3 km/h (1 Bft)
11.02.2017 03:00 -3,1 C 94 % 1019,7 hPa 0,0 l/m O-NO 0,00 h 0 W/m 1,5 km/h (1 Bft)
11.02.2017 04:00 -3,5 C 95 % 1020,0 hPa 0,0 l/m O-NO 0,00 h 0 W/m 0,3 km/h (0 Bft)
11.02.2017 05:00 -3,5 C 95 % 1020,2 hPa 0,0 l/m N 0,00 h 0 W/m 0,7 km/h (0 Bft)
11.02.2017 06:00 -3,6 C 96 % 1020,4 hPa 0,0 l/m N 0,00 h 0 W/m 0,0 km/h (0 Bft)
11.02.2017 07:00 -3,3 C 96 % 1020,5 hPa 0,0 l/m N 0,00 h 5 W/m 0,0 km/h (0 Bft)
11.02.2017 08:00 -2,7 C 97 % 1020,7 hPa 0,0 l/m N 0,00 h 23 W/m 0,0 km/h (0 Bft)
11.02.2017 09:00 -1,9 C 97 % 1020,7 hPa 0,0 l/m O-NO 0,00 h 60 W/m 0,9 km/h (0 Bft)
11.02.2017 10:00 -1,4 C 97 % 1020,7 hPa 0,0 l/m N 0,00 h 107 W/m 0,0 km/h (0 Bft)
11.02.2017 11:00 -0,9 C 98 % 1020,6 hPa 0,0 l/m N 0,00 h 126 W/m 0,8 km/h (0 Bft)
11.02.2017 12:00 -0,4 C 98 % 1020,1 hPa 0,0 l/m O-NO 0,00 h 162 W/m 5,0 km/h (1 Bft)
11.02.2017 13:00 -0,1 C 98 % 1019,8 hPa 0,0 l/m NO 0,00 h 166 W/m 3,7 km/h (1 Bft)
11.02.2017 14:00 0,5 C 97 % 1019,5 hPa 0,0 l/m NO 0,00 h 150 W/m 5,5 km/h (1 Bft)
11.02.2017 15:00 0,5 C 96 % 1019,5 hPa 0,0 l/m NO 0,00 h 86 W/m 3,6 km/h (1 Bft)
11.02.2017 16:00 0,4 C 97 % 1019,0 hPa 0,0 l/m NO 0,00 h 44 W/m 2,4 km/h (1 Bft)
11.02.2017 17:00 0,2 C 96 % 1019,3 hPa 0,0 l/m NO 0,00 h 10 W/m 3,5 km/h (1 Bft)
11.02.2017 18:00 -0,3 C 96 % 1019,8 hPa 0,0 l/m NO 0,00 h 0 W/m 4,1 km/h (1 Bft)
11.02.2017 19:00 -0,8 C 96 % 1019,8 hPa 0,0 l/m NO 0,00 h 0 W/m 1,7 km/h (1 Bft)
11.02.2017 20:00 -1,0 C 97 % 1020,1 hPa 0,0 l/m N 0,00 h 0 W/m 0,3 km/h (0 Bft)
11.02.2017 21:00 -1,2 C 97 % 1020,4 hPa 0,0 l/m N 0,00 h 0 W/m 0,0 km/h (0 Bft)
11.02.2017 22:00 -1,4 C 97 % 1020,7 hPa 0,0 l/m NO 0,00 h 0 W/m 1,6 km/h (1 Bft)
11.02.2017 23:00 -1,6 C 97 % 1020,7 hPa 0,0 l/m NO 0,00 h 0 W/m 2,3 km/h (1 Bft)
12.02.2017 00:00 -1,7 C 97 % 1020,8 hPa 0,0 l/m NO 0,00 h 0 W/m 1,2 km/h (1 Bft)
12.02.2017 01:00 -1,8 C 98 % 1020,8 hPa 0,0 l/m NO 0,00 h 0 W/m 4,9 km/h (1 Bft)
12.02.2017 02:00 -2,0 C 97 % 1021,2 hPa 0,0 l/m NO 0,00 h 0 W/m 3,7 km/h (1 Bft)
12.02.2017 03:00 -2,0 C 98 % 1021,5 hPa 0,0 l/m N-NO 0,00 h 0 W/m 8,7 km/h (2 Bft)
12.02.2017 04:00 -1,9 C 98 % 1022,0 hPa 0,0 l/m NO 0,00 h 0 W/m 6,7 km/h (2 Bft)
12.02.2017 05:00 -2,0 C 98 % 1022,4 hPa 0,0 l/m NO 0,00 h 0 W/m 9,3 km/h (2 Bft)
12.02.2017 06:00 -2,2 C 98 % 1022,8 hPa 0,0 l/m NO 0,00 h 0 W/m 10,2 km/h (2 Bft)
12.02.2017 07:00 -2,2 C 98 % 1023,5 hPa 0,0 l/m NO 0,00 h 7 W/m 8,8 km/h (2 Bft)
12.02.2017 08:00 -2,1 C 98 % 1024,3 hPa 0,0 l/m O-NO 0,00 h 22 W/m 10,7 km/h (2 Bft)
12.02.2017 09:00 -1,8 C 98 % 1024,9 hPa 0,0 l/m O-NO 0,00 h 54 W/m 10,6 km/h (2 Bft)
12.02.2017 10:00 -1,5 C 98 % 1025,4 hPa 0,0 l/m NO 0,00 h 97 W/m 11,5 km/h (2 Bft)
12.02.2017 11:00 -1,0 C 98 % 1025,6 hPa 0,0 l/m O-NO 0,00 h 137 W/m 12,2 km/h (2 Bft)
12.02.2017 12:00 -0,4 C 97 % 1025,5 hPa 0,0 l/m O-NO 0,00 h 152 W/m 14,0 km/h (3 Bft)
12.02.2017 13:00 -0,1 C 95 % 1025,4 hPa 0,0 l/m O-NO 0,00 h 147 W/m 14,5 km/h (3 Bft)
12.02.2017 14:00 -0,0 C 95 % 1025,4 hPa 0,0 l/m NO 0,00 h 106 W/m 14,2 km/h (3 Bft)
12.02.2017 15:00 -0,1 C 95 % 1025,6 hPa 0,0 l/m NO 0,00 h 69 W/m 17,4 km/h (3 Bft)
12.02.2017 16:00 -0,3 C 95 % 1025,9 hPa 0,0 l/m O-NO 0,00 h 49 W/m 17,3 km/h (3 Bft)
12.02.2017 17:00 -0,3 C 95 % 1026,3 hPa 0,0 l/m O-NO 0,00 h 10 W/m 14,9 km/h (3 Bft)
12.02.2017 18:00 -0,5 C 95 % 1026,7 hPa 0,0 l/m O-NO 0,00 h 0 W/m 16,2 km/h (3 Bft)
12.02.2017 19:00 -0,7 C 95 % 1026,8 hPa 0,0 l/m O-NO 0,00 h 0 W/m 17,0 km/h (3 Bft)
12.02.2017 20:00 -0,8 C 96 % 1026,8 hPa 0,0 l/m O-NO 0,00 h 0 W/m 18,6 km/h (3 Bft)
12.02.2017 21:00 -0,8 C 96 % 1026,8 hPa 0,0 l/m O-NO 0,00 h 0 W/m 16,2 km/h (3 Bft)
12.02.2017 22:00 -0,7 C 96 % 1026,9 hPa 0,0 l/m O-NO 0,00 h 0 W/m 17,7 km/h (3 Bft)
12.02.2017 23:00 -0,6 C 96 % 1026,8 hPa 0,0 l/m O-NO 0,00 h 0 W/m 16,0 km/h (3 Bft)
Min-Datum _ 09.02.17 07.02.17 06.02.17 - - - - 06.02.17
_ Min-Zeit 07:25 15:00 00:00 - - - - 00:00
Minimum _ -3,6 C 77 % 1003,6 hPa - - - - 0,0 km/h (0 Bft)
Max-Datum _ 07.02.17 06.02.17 12.02.17 06.02.17 - 06.02.17 10.02.17 12.02.17
_ Max-Zeit 15:55 10:55 21:55 00:55 - 13:30 13:55 15:40
Maximum _ 5,3 C 99 % 1027,0 hPa 0,2 l/m - 0,08 h 457 W/m 25,7 km/h
O-NO (4 Bft)
Durchschnitt _ 0,1 C 92 % 1019,1 hPa #0,6 l/m O-NO #3:30 h 91 W/m 5,7 km/h (1 Bft)